Time;durP1;ratioP1;P1;durP2;ratioP2;P2;SDS_P1;SDS_P2;PMS_P1;PMS_P2;Temp;Humidity;BMP_temperature;BMP_pressure;BME280_temperature;BME280_humidity;BME280_pressure;Samples;Min_cycle;Max_cycle;Signal;HPM_P1;HPM_P2
2023/12/20 00:01:41;;;;;;;20.25;4.80;;;;;;;;;;5063737;28;20106;-70
2023/12/20 00:04:12;;;;;;;20.00;5.07;;;;;;;;;;5067467;28;20045;-70
2023/12/20 00:06:38;;;;;;;21.05;4.45;;;;;;;;;;5068866;28;20631;-70
2023/12/20 00:09:04;;;;;;;21.73;5.07;;;;;;;;;;5069051;28;20055;-70
2023/12/20 00:11:30;;;;;;;19.40;5.70;;;;;;;;;;5064683;28;20056;-70
2023/12/20 00:13:56;;;;;;;20.67;5.32;;;;;;;;;;5071549;28;20056;-70
2023/12/20 00:16:22;;;;;;;20.35;4.93;;;;;;;;;;5065368;28;20041;-70
2023/12/20 00:18:48;;;;;;;19.92;4.85;;;;;;;;;;5064463;28;20105;-70
2023/12/20 00:21:14;;;;;;;18.90;4.40;;;;;;;;;;5063749;28;20381;-70
2023/12/20 00:23:40;;;;;;;16.67;4.25;;;;;;;;;;5068306;28;20047;-70
2023/12/20 00:26:06;;;;;;;15.63;4.22;;;;;;;;;;5072227;28;20055;-70
2023/12/20 00:28:32;;;;;;;19.75;4.47;;;;;;;;;;5055146;28;20067;-70
2023/12/20 00:30:58;;;;;;;25.10;5.40;;;;;;;;;;5059853;28;20182;-70
2023/12/20 00:33:24;;;;;;;18.63;4.22;;;;;;;;;;5065897;28;20135;-70
2023/12/20 00:35:50;;;;;;;24.23;5.10;;;;;;;;;;5061874;28;20044;-70
2023/12/20 00:38:16;;;;;;;24.08;5.13;;;;;;;;;;5063657;28;20051;-70
2023/12/20 00:40:42;;;;;;;16.02;4.10;;;;;;;;;;5066264;28;20464;-70
2023/12/20 00:43:08;;;;;;;13.45;4.88;;;;;;;;;;5072253;28;20051;-70
2023/12/20 00:45:34;;;;;;;13.95;4.35;;;;;;;;;;5052654;28;20065;-70
2023/12/20 00:48:00;;;;;;;21.75;5.45;;;;;;;;;;5073936;28;20078;-70
2023/12/20 00:50:26;;;;;;;18.90;4.70;;;;;;;;;;5072300;28;20056;-70
2023/12/20 00:52:54;;;;;;;18.08;4.75;;;;;;;;;;5064663;28;20403;-70
2023/12/20 00:55:20;;;;;;;17.42;5.10;;;;;;;;;;5070214;28;20071;-70
2023/12/20 00:57:47;;;;;;;17.50;4.35;;;;;;;;;;5066086;28;20531;-70
2023/12/20 01:00:13;;;;;;;23.42;4.97;;;;;;;;;;5064486;28;20040;-70
2023/12/20 01:02:39;;;;;;;17.25;5.22;;;;;;;;;;5056241;28;20554;-70
2023/12/20 01:05:07;;;;;;;16.83;5.25;;;;;;;;;;5068018;28;20052;-70
2023/12/20 01:07:33;;;;;;;26.20;6.43;;;;;;;;;;5069548;28;20507;-70
2023/12/20 01:09:59;;;;;;;25.65;6.50;;;;;;;;;;5069987;28;20036;-70
2023/12/20 01:12:25;;;;;;;16.73;4.60;;;;;;;;;;5060232;28;20071;-70
2023/12/20 01:14:51;;;;;;;19.77;5.45;;;;;;;;;;5065607;28;20079;-70
2023/12/20 01:17:17;;;;;;;16.20;4.13;;;;;;;;;;5063487;28;20464;-69
2023/12/20 01:19:46;;;;;;;23.30;4.68;;;;;;;;;;5061190;28;20049;-70
2023/12/20 01:22:17;;;;;;;21.65;4.93;;;;;;;;;;5065503;28;20044;-71
2023/12/20 01:24:43;;;;;;;21.10;4.32;;;;;;;;;;5065608;28;20404;-70
2023/12/20 01:27:09;;;;;;;21.17;5.28;;;;;;;;;;5065620;28;20040;-70
2023/12/20 01:29:35;;;;;;;21.45;4.68;;;;;;;;;;5065954;28;20036;-70
2023/12/20 01:32:02;;;;;;;19.85;4.93;;;;;;;;;;5062860;28;20044;-70
2023/12/20 01:34:28;;;;;;;20.80;4.88;;;;;;;;;;5066959;28;20059;-70
2023/12/20 01:36:54;;;;;;;26.05;5.38;;;;;;;;;;5064690;28;20076;-70
2023/12/20 01:39:20;;;;;;;17.25;5.45;;;;;;;;;;5066080;28;20408;-70
2023/12/20 01:41:46;;;;;;;24.88;6.13;;;;;;;;;;5058979;28;20545;-70
2023/12/20 01:44:12;;;;;;;21.00;5.13;;;;;;;;;;5066316;28;20067;-70
2023/12/20 01:46:38;;;;;;;24.55;5.47;;;;;;;;;;5064093;28;20105;-70
2023/12/20 01:49:04;;;;;;;22.60;6.47;;;;;;;;;;5069286;28;20048;-70
2023/12/20 01:51:31;;;;;;;24.55;5.95;;;;;;;;;;5065337;28;20056;-70
2023/12/20 01:53:58;;;;;;;22.48;5.15;;;;;;;;;;5051597;28;20067;-70
2023/12/20 01:56:24;;;;;;;23.13;5.68;;;;;;;;;;5067246;28;20123;-70
2023/12/20 01:58:50;;;;;;;21.20;6.25;;;;;;;;;;5063242;28;20056;-69
2023/12/20 02:01:17;;;;;;;19.88;5.03;;;;;;;;;;5062537;28;20049;-70
2023/12/20 02:03:43;;;;;;;22.25;5.53;;;;;;;;;;5061075;28;20036;-70
2023/12/20 02:06:09;;;;;;;22.52;5.40;;;;;;;;;;5062258;28;20048;-70
2023/12/20 02:08:36;;;;;;;17.88;4.30;;;;;;;;;;5063267;28;20098;-70
2023/12/20 02:11:02;;;;;;;24.83;5.40;;;;;;;;;;5081512;28;20040;-70
2023/12/20 02:13:28;;;;;;;22.98;5.97;;;;;;;;;;5061959;28;20494;-70
2023/12/20 02:15:55;;;;;;;22.00;6.13;;;;;;;;;;5057524;28;20051;-70
2023/12/20 02:18:21;;;;;;;25.63;5.50;;;;;;;;;;5070927;28;20051;-70
2023/12/20 02:20:47;;;;;;;27.88;6.07;;;;;;;;;;5065775;28;20120;-70
2023/12/20 02:23:13;;;;;;;28.85;6.97;;;;;;;;;;5065888;28;20192;-70
2023/12/20 02:25:39;;;;;;;27.65;6.43;;;;;;;;;;5066718;28;20521;-70
2023/12/20 02:28:06;;;;;;;24.83;5.57;;;;;;;;;;5067999;28;20150;-70
2023/12/20 02:30:32;;;;;;;23.40;6.72;;;;;;;;;;5066898;28;20049;-70
2023/12/20 02:33:00;;;;;;;22.55;5.82;;;;;;;;;;5064242;28;20036;-70
2023/12/20 02:35:26;;;;;;;19.80;5.10;;;;;;;;;;5068504;28;20250;-70
2023/12/20 02:37:52;;;;;;;18.27;4.47;;;;;;;;;;5069462;28;20043;-70
2023/12/20 02:40:27;;;;;;;18.13;4.88;;;;;;;;;;5066462;28;20045;-70
2023/12/20 02:42:53;;;;;;;18.40;5.07;;;;;;;;;;5066671;28;20406;-70
2023/12/20 02:45:19;;;;;;;21.10;5.47;;;;;;;;;;5060100;28;20044;-70
2023/12/20 02:47:45;;;;;;;29.08;6.22;;;;;;;;;;5064831;28;20055;-70
2023/12/20 02:50:11;;;;;;;19.48;4.93;;;;;;;;;;5062850;28;20045;-69
2023/12/20 02:52:37;;;;;;;29.95;5.78;;;;;;;;;;5067362;28;20427;-70
2023/12/20 02:55:03;;;;;;;19.55;5.30;;;;;;;;;;5066123;28;20044;-70
2023/12/20 02:57:29;;;;;;;20.65;5.25;;;;;;;;;;5057037;28;20041;-70
2023/12/20 02:59:56;;;;;;;21.50;5.72;;;;;;;;;;5064519;28;20102;-70
2023/12/20 03:02:23;;;;;;;19.23;4.97;;;;;;;;;;5063870;28;20165;-70
2023/12/20 03:04:48;;;;;;;21.52;5.18;;;;;;;;;;5058632;28;20349;-70
2023/12/20 03:07:14;;;;;;;16.30;4.25;;;;;;;;;;5063580;28;20727;-70
2023/12/20 03:09:40;;;;;;;18.67;5.15;;;;;;;;;;5055513;28;20101;-70
2023/12/20 03:12:07;;;;;;;25.42;5.97;;;;;;;;;;5057936;28;22034;-70
2023/12/20 03:14:35;;;;;;;20.80;5.35;;;;;;;;;;5061021;28;20052;-69
2023/12/20 03:17:01;;;;;;;18.70;5.72;;;;;;;;;;5055826;28;20135;-70
2023/12/20 03:19:29;;;;;;;23.90;5.40;;;;;;;;;;5059013;28;20439;-69
2023/12/20 03:21:55;;;;;;;23.73;5.45;;;;;;;;;;5059757;28;20048;-70
2023/12/20 03:24:21;;;;;;;25.17;5.82;;;;;;;;;;5061370;28;20053;-70
2023/12/20 03:26:47;;;;;;;24.35;6.13;;;;;;;;;;5064602;28;20064;-70
2023/12/20 03:29:13;;;;;;;20.52;4.70;;;;;;;;;;5060962;28;20052;-70
2023/12/20 03:31:39;;;;;;;18.50;5.10;;;;;;;;;;5058687;28;20048;-70
2023/12/20 03:34:05;;;;;;;20.85;4.72;;;;;;;;;;5064558;28;20048;-70
2023/12/20 03:36:31;;;;;;;23.45;6.15;;;;;;;;;;5063876;28;20113;-70
2023/12/20 03:38:57;;;;;;;27.10;6.75;;;;;;;;;;5062066;28;20060;-70
2023/12/20 03:41:23;;;;;;;22.83;5.93;;;;;;;;;;5060726;28;20056;-70
2023/12/20 03:43:49;;;;;;;23.25;4.90;;;;;;;;;;5064020;28;20925;-70
2023/12/20 03:46:15;;;;;;;26.25;5.32;;;;;;;;;;5066277;28;20102;-70
2023/12/20 03:48:41;;;;;;;28.30;6.05;;;;;;;;;;5059474;28;20048;-70
2023/12/20 03:51:07;;;;;;;28.88;6.82;;;;;;;;;;5060160;28;20048;-70
2023/12/20 03:53:33;;;;;;;25.98;6.15;;;;;;;;;;5059903;28;20040;-70
2023/12/20 03:55:59;;;;;;;24.02;6.43;;;;;;;;;;5063032;28;20400;-70
2023/12/20 03:58:25;;;;;;;16.15;4.93;;;;;;;;;;5056209;28;20068;-70
2023/12/20 04:00:51;;;;;;;31.58;6.20;;;;;;;;;;5067799;28;20048;-70
2023/12/20 04:03:17;;;;;;;20.15;4.28;;;;;;;;;;5061672;28;20051;-70
2023/12/20 04:05:43;;;;;;;29.98;5.55;;;;;;;;;;5056940;28;20518;-70
2023/12/20 04:08:09;;;;;;;21.83;6.43;;;;;;;;;;5058735;28;20485;-69
2023/12/20 04:10:37;;;;;;;19.73;5.63;;;;;;;;;;5066490;28;20056;-69
2023/12/20 04:13:03;;;;;;;26.05;6.35;;;;;;;;;;5067692;28;20052;-70
2023/12/20 04:15:29;;;;;;;21.85;5.63;;;;;;;;;;5058204;28;20059;-70
2023/12/20 04:17:55;;;;;;;18.08;5.72;;;;;;;;;;5060163;28;20052;-70
2023/12/20 04:20:21;;;;;;;21.45;4.78;;;;;;;;;;5062277;28;20397;-70
2023/12/20 04:22:47;;;;;;;25.17;6.75;;;;;;;;;;5060932;28;20105;-70
2023/12/20 04:25:13;;;;;;;22.70;5.18;;;;;;;;;;5056843;28;20397;-70
2023/12/20 04:27:39;;;;;;;37.40;6.40;;;;;;;;;;5060264;28;20064;-70
2023/12/20 04:30:05;;;;;;;32.10;5.75;;;;;;;;;;5062660;28;20491;-70
2023/12/20 04:32:31;;;;;;;29.52;6.18;;;;;;;;;;5064718;28;20147;-70
2023/12/20 04:34:57;;;;;;;21.52;5.50;;;;;;;;;;5067699;28;20682;-70
2023/12/20 04:37:23;;;;;;;21.52;4.72;;;;;;;;;;5060298;28;20484;-70
2023/12/20 04:39:50;;;;;;;32.58;7.18;;;;;;;;;;5060634;28;20049;-70
2023/12/20 04:42:16;;;;;;;21.83;5.88;;;;;;;;;;5067248;28;20421;-70
2023/12/20 04:44:43;;;;;;;25.13;6.18;;;;;;;;;;5065261;28;20405;-69
2023/12/20 04:47:09;;;;;;;26.17;5.75;;;;;;;;;;5066489;28;20044;-70
2023/12/20 04:49:35;;;;;;;25.73;6.15;;;;;;;;;;5064613;28;20137;-70
2023/12/20 04:52:05;;;;;;;20.45;5.30;;;;;;;;;;5067554;28;20385;-70
2023/12/20 04:54:31;;;;;;;23.38;5.22;;;;;;;;;;5062907;28;20059;-70
2023/12/20 04:56:57;;;;;;;24.38;5.65;;;;;;;;;;5067742;28;20044;-70
2023/12/20 04:59:23;;;;;;;21.60;4.82;;;;;;;;;;5066366;28;20063;-70
2023/12/20 05:01:49;;;;;;;25.63;5.53;;;;;;;;;;5066825;28;20484;-70
2023/12/20 05:04:15;;;;;;;16.35;4.20;;;;;;;;;;5063984;28;20044;-70
2023/12/20 05:06:50;;;;;;;23.55;5.75;;;;;;;;;;5070164;28;20048;-69
2023/12/20 05:09:17;;;;;;;16.45;5.10;;;;;;;;;;5065697;28;20512;-70
2023/12/20 05:11:43;;;;;;;24.42;5.72;;;;;;;;;;5056858;28;20066;-70
2023/12/20 05:14:12;;;;;;;15.68;4.68;;;;;;;;;;5065686;28;20056;-70
2023/12/20 05:16:38;;;;;;;19.85;5.10;;;;;;;;;;5061360;28;20036;-70
2023/12/20 05:19:07;;;;;;;20.90;4.55;;;;;;;;;;5062740;28;20044;-69
2023/12/20 05:21:33;;;;;;;20.48;5.60;;;;;;;;;;5064002;28;20175;-70
2023/12/20 05:24:00;;;;;;;23.08;5.00;;;;;;;;;;5065775;28;20496;-70
2023/12/20 05:26:26;;;;;;;19.90;5.32;;;;;;;;;;5062685;28;20036;-69
2023/12/20 05:28:52;;;;;;;19.42;5.38;;;;;;;;;;5062141;28;20127;-70
2023/12/20 05:31:21;;;;;;;27.88;6.43;;;;;;;;;;5061628;28;20125;-69
2023/12/20 05:33:50;;;;;;;24.83;6.25;;;;;;;;;;5067481;28;20049;-69
2023/12/20 05:36:16;;;;;;;20.83;5.80;;;;;;;;;;5061975;28;20254;-70
2023/12/20 05:38:42;;;;;;;22.15;5.10;;;;;;;;;;5063426;28;20064;-70
2023/12/20 05:41:08;;;;;;;22.63;5.53;;;;;;;;;;5069455;28;20410;-70
2023/12/20 05:43:35;;;;;;;27.77;6.20;;;;;;;;;;5062618;28;20033;-71
2023/12/20 05:46:01;;;;;;;25.35;5.97;;;;;;;;;;5064859;28;20075;-70
2023/12/20 05:48:27;;;;;;;24.80;4.88;;;;;;;;;;5054567;28;20060;-69
2023/12/20 05:50:53;;;;;;;14.95;4.97;;;;;;;;;;5031482;28;20049;-69
2023/12/20 05:53:19;;;;;;;25.35;5.53;;;;;;;;;;5029479;28;20202;-69
2023/12/20 05:55:48;;;;;;;23.63;5.43;;;;;;;;;;5032019;28;20155;-69
2023/12/20 05:58:14;;;;;;;21.88;5.53;;;;;;;;;;5023858;28;20131;-69
2023/12/20 06:00:40;;;;;;;21.00;4.22;;;;;;;;;;5023736;28;20129;-70
2023/12/20 06:03:06;;;;;;;17.13;5.18;;;;;;;;;;5022328;28;20481;-70
2023/12/20 06:05:32;;;;;;;17.98;5.22;;;;;;;;;;5030707;28;20147;-70
2023/12/20 06:08:02;;;;;;;24.77;6.00;;;;;;;;;;5028731;28;20125;-70
2023/12/20 06:10:28;;;;;;;15.90;4.95;;;;;;;;;;5024607;28;20045;-70
2023/12/20 06:13:00;;;;;;;25.33;5.90;;;;;;;;;;5053884;28;20041;-69
2023/12/20 06:15:26;;;;;;;22.08;5.82;;;;;;;;;;5026625;28;20131;-69
2023/12/20 06:17:52;;;;;;;20.45;5.13;;;;;;;;;;5031785;28;20049;-70
2023/12/20 06:20:18;;;;;;;35.17;7.28;;;;;;;;;;5031172;28;20056;-70
2023/12/20 06:22:44;;;;;;;28.35;6.82;;;;;;;;;;5032450;28;20053;-70
2023/12/20 06:25:10;;;;;;;18.15;5.75;;;;;;;;;;5034160;28;20044;-69
2023/12/20 06:27:36;;;;;;;28.77;7.03;;;;;;;;;;5050952;28;20116;-70
2023/12/20 06:30:03;;;;;;;19.08;5.32;;;;;;;;;;5031204;28;20041;-70
2023/12/20 06:32:29;;;;;;;24.88;5.80;;;;;;;;;;5023960;28;20036;-70
2023/12/20 06:34:55;;;;;;;24.27;5.47;;;;;;;;;;5024831;28;20052;-69
2023/12/20 06:37:21;;;;;;;22.58;6.60;;;;;;;;;;5026836;28;20052;-69
2023/12/20 06:39:47;;;;;;;25.92;6.15;;;;;;;;;;5046873;28;20049;-69
2023/12/20 06:42:13;;;;;;;21.20;5.97;;;;;;;;;;5029968;28;20045;-70
2023/12/20 06:44:39;;;;;;;17.58;5.43;;;;;;;;;;5044946;28;20128;-70
2023/12/20 06:47:06;;;;;;;22.65;4.97;;;;;;;;;;5023549;28;20099;-70
2023/12/20 06:49:32;;;;;;;15.32;4.15;;;;;;;;;;5060424;28;20392;-70
2023/12/20 06:51:58;;;;;;;21.50;5.18;;;;;;;;;;5062512;28;20076;-70
2023/12/20 06:54:24;;;;;;;18.15;4.68;;;;;;;;;;5060675;28;20084;-70
2023/12/20 06:56:50;;;;;;;28.92;5.82;;;;;;;;;;5059138;28;20067;-70
2023/12/20 06:59:16;;;;;;;29.83;6.82;;;;;;;;;;5058336;28;20052;-71
2023/12/20 07:01:45;;;;;;;20.45;5.10;;;;;;;;;;5057476;28;20040;-69
2023/12/20 07:04:12;;;;;;;22.08;5.32;;;;;;;;;;5061554;28;20037;-70
2023/12/20 07:06:38;;;;;;;24.38;5.95;;;;;;;;;;5059750;28;20049;-70
2023/12/20 07:09:04;;;;;;;21.92;5.53;;;;;;;;;;5061541;28;20048;-70
2023/12/20 07:11:30;;;;;;;22.95;5.85;;;;;;;;;;5058437;28;20040;-70
2023/12/20 07:13:59;;;;;;;22.33;6.05;;;;;;;;;;5057262;28;20074;-70
2023/12/20 07:16:25;;;;;;;19.30;5.45;;;;;;;;;;5056815;28;20049;-70
2023/12/20 07:18:52;;;;;;;23.58;4.95;;;;;;;;;;5061869;28;20048;-70
2023/12/20 07:21:18;;;;;;;21.55;5.63;;;;;;;;;;5060729;28;20052;-70
2023/12/20 07:23:44;;;;;;;22.23;5.20;;;;;;;;;;5057943;28;20913;-70
2023/12/20 07:26:11;;;;;;;29.45;6.68;;;;;;;;;;5059618;28;20049;-70
2023/12/20 07:28:37;;;;;;;24.60;7.18;;;;;;;;;;5061330;28;20076;-70
2023/12/20 07:31:03;;;;;;;25.58;5.63;;;;;;;;;;5059581;28;20428;-70
2023/12/20 07:33:29;;;;;;;24.27;5.90;;;;;;;;;;5060262;28;20102;-70
2023/12/20 07:35:55;;;;;;;21.95;5.80;;;;;;;;;;5064327;28;20045;-70
2023/12/20 07:38:21;;;;;;;30.27;8.10;;;;;;;;;;5060811;28;20377;-71
2023/12/20 07:40:50;;;;;;;19.85;5.90;;;;;;;;;;5063380;28;20059;-70
2023/12/20 07:43:16;;;;;;;28.27;6.57;;;;;;;;;;5058524;28;20055;-70
2023/12/20 07:45:42;;;;;;;21.98;5.85;;;;;;;;;;5056067;28;20407;-70
2023/12/20 07:48:08;;;;;;;18.02;5.70;;;;;;;;;;5061565;28;20385;-70
2023/12/20 07:50:35;;;;;;;26.98;6.40;;;;;;;;;;5060238;28;20121;-71
2023/12/20 07:53:01;;;;;;;24.50;5.75;;;;;;;;;;5064555;28;20099;-69
2023/12/20 07:55:27;;;;;;;23.65;5.25;;;;;;;;;;5061425;28;20151;-69
2023/12/20 07:57:53;;;;;;;19.10;5.55;;;;;;;;;;5066768;28;20438;-70
2023/12/20 08:00:19;;;;;;;23.40;5.95;;;;;;;;;;5060706;28;20052;-69
2023/12/20 08:02:46;;;;;;;19.92;5.40;;;;;;;;;;5067127;28;20061;-69
2023/12/20 08:05:12;;;;;;;21.33;5.45;;;;;;;;;;5063230;28;20131;-69
2023/12/20 08:07:38;;;;;;;21.02;5.38;;;;;;;;;;5065071;28;20492;-69
2023/12/20 08:10:04;;;;;;;18.98;4.53;;;;;;;;;;5066885;28;20044;-69
2023/12/20 08:12:30;;;;;;;21.95;5.65;;;;;;;;;;5064477;28;20045;-69
2023/12/20 08:14:57;;;;;;;22.55;6.22;;;;;;;;;;5067719;28;20132;-69
2023/12/20 08:17:25;;;;;;;29.95;6.60;;;;;;;;;;5066367;28;20132;-69
2023/12/20 08:19:52;;;;;;;19.83;5.88;;;;;;;;;;5063339;28;20131;-69
2023/12/20 08:22:18;;;;;;;18.08;5.32;;;;;;;;;;5058795;28;20171;-69
2023/12/20 08:24:44;;;;;;;20.88;6.30;;;;;;;;;;5061472;28;20049;-69
2023/12/20 08:27:10;;;;;;;25.00;6.85;;;;;;;;;;5056766;28;20056;-70
2023/12/20 08:29:36;;;;;;;27.00;6.43;;;;;;;;;;5060104;28;20120;-69
2023/12/20 08:32:02;;;;;;;23.17;6.80;;;;;;;;;;5059467;28;20048;-69
2023/12/20 08:34:28;;;;;;;26.98;6.25;;;;;;;;;;5065094;28;20148;-70
2023/12/20 08:36:54;;;;;;;26.40;6.32;;;;;;;;;;5066460;28;20052;-70
2023/12/20 08:39:20;;;;;;;34.10;7.30;;;;;;;;;;5060769;28;20458;-70
2023/12/20 08:41:46;;;;;;;20.17;4.78;;;;;;;;;;5063949;28;20048;-70
2023/12/20 08:44:13;;;;;;;22.90;4.88;;;;;;;;;;5062721;28;20119;-71
2023/12/20 08:46:39;;;;;;;21.60;4.97;;;;;;;;;;5068207;28;20115;-71
2023/12/20 08:49:05;;;;;;;21.50;5.18;;;;;;;;;;5069143;28;20052;-71
2023/12/20 08:51:31;;;;;;;21.98;5.93;;;;;;;;;;5060619;28;20128;-70
2023/12/20 08:53:57;;;;;;;32.10;6.82;;;;;;;;;;5061875;28;20056;-70
2023/12/20 08:56:23;;;;;;;8.35;3.25;;;;;;;;;;5060332;28;20044;-70
2023/12/20 08:58:49;;;;;;;10.07;3.00;;;;;;;;;;5060742;28;20512;-70
2023/12/20 09:01:15;;;;;;;13.70;3.63;;;;;;;;;;5060263;28;20105;-70
2023/12/20 09:03:41;;;;;;;15.02;4.05;;;;;;;;;;5060371;28;20041;-70
2023/12/20 09:06:07;;;;;;;11.82;3.70;;;;;;;;;;5068129;28;20127;-70
2023/12/20 09:08:34;;;;;;;14.70;4.10;;;;;;;;;;5065120;28;20151;-70
2023/12/20 09:11:00;;;;;;;14.88;3.60;;;;;;;;;;5064311;28;20049;-70
2023/12/20 09:13:29;;;;;;;11.30;3.53;;;;;;;;;;5066579;28;20077;-71
2023/12/20 09:15:58;;;;;;;21.88;4.13;;;;;;;;;;5058431;28;20053;-70
2023/12/20 09:18:24;;;;;;;12.73;4.00;;;;;;;;;;5068096;28;20123;-70
2023/12/20 09:20:50;;;;;;;13.93;3.97;;;;;;;;;;5069510;28;20446;-70
2023/12/20 09:23:18;;;;;;;16.58;3.88;;;;;;;;;;5065089;28;20041;-70
2023/12/20 09:25:44;;;;;;;14.15;3.97;;;;;;;;;;5066626;28;20458;-70
2023/12/20 09:28:10;;;;;;;13.35;3.70;;;;;;;;;;5063539;28;20098;-70
2023/12/20 09:30:39;;;;;;;13.77;3.22;;;;;;;;;;5059652;28;20102;-70
2023/12/20 09:33:07;;;;;;;11.40;3.53;;;;;;;;;;5057038;28;20053;-69
2023/12/20 09:35:33;;;;;;;10.82;3.78;;;;;;;;;;5061623;28;20094;-69
2023/12/20 09:37:59;;;;;;;12.77;3.70;;;;;;;;;;5061824;28;20037;-70
2023/12/20 09:40:26;;;;;;;18.80;3.58;;;;;;;;;;5066584;28;20052;-70
2023/12/20 09:43:02;;;;;;;15.88;4.32;;;;;;;;;;5066170;28;20047;-70
2023/12/20 09:45:28;;;;;;;14.02;4.40;;;;;;;;;;5056215;28;20052;-70
2023/12/20 09:47:54;;;;;;;17.88;3.70;;;;;;;;;;5063382;28;20140;-70
2023/12/20 09:50:21;;;;;;;12.63;3.67;;;;;;;;;;5061685;28;20088;-70
2023/12/20 09:52:51;;;;;;;21.90;3.65;;;;;;;;;;5058440;28;20423;-70
2023/12/20 09:55:20;;;;;;;18.30;3.38;;;;;;;;;;5059455;28;20044;-70
2023/12/20 09:57:46;;;;;;;11.25;3.22;;;;;;;;;;5059490;28;20488;-70
2023/12/20 10:00:13;;;;;;;13.52;2.85;;;;;;;;;;5056971;28;20114;-70
2023/12/20 10:02:42;;;;;;;14.32;3.60;;;;;;;;;;5053338;28;20101;-70
2023/12/20 10:05:09;;;;;;;17.00;4.30;;;;;;;;;;5057673;28;20045;-70
2023/12/20 10:07:38;;;;;;;13.52;3.53;;;;;;;;;;5057501;28;20045;-70
2023/12/20 10:10:05;;;;;;;16.55;3.53;;;;;;;;;;5067147;28;20094;-70
2023/12/20 10:12:31;;;;;;;15.45;3.95;;;;;;;;;;5061002;28;20396;-70
2023/12/20 10:14:58;;;;;;;14.50;4.70;;;;;;;;;;5062263;28;20107;-70
2023/12/20 10:17:29;;;;;;;18.63;3.92;;;;;;;;;;5064706;28;20048;-70
2023/12/20 10:19:55;;;;;;;9.82;3.47;;;;;;;;;;5066590;28;20473;-70
2023/12/20 10:22:22;;;;;;;15.15;3.45;;;;;;;;;;5064879;28;20083;-70
2023/12/20 10:24:50;;;;;;;17.33;4.15;;;;;;;;;;5063237;28;20072;-70
2023/12/20 10:27:21;;;;;;;12.90;3.88;;;;;;;;;;5064608;28;20457;-70
2023/12/20 10:29:47;;;;;;;14.43;3.65;;;;;;;;;;5060543;28;20448;-70
2023/12/20 10:32:22;;;;;;;11.52;3.58;;;;;;;;;;5069381;28;20049;-70
2023/12/20 10:34:48;;;;;;;16.02;3.33;;;;;;;;;;5059273;28;20078;-70
2023/12/20 10:37:14;;;;;;;13.48;3.83;;;;;;;;;;5069270;28;21620;-70
2023/12/20 10:39:42;;;;;;;13.82;3.95;;;;;;;;;;5056749;28;20041;-70
2023/12/20 10:42:09;;;;;;;12.30;2.92;;;;;;;;;;5065955;28;20384;-70
2023/12/20 10:44:35;;;;;;;11.60;3.10;;;;;;;;;;5066211;28;20049;-69
2023/12/20 10:47:01;;;;;;;9.50;3.55;;;;;;;;;;5070077;28;20048;-70
2023/12/20 10:49:28;;;;;;;14.90;4.00;;;;;;;;;;5053232;28;20052;-70
2023/12/20 10:51:57;;;;;;;15.38;3.58;;;;;;;;;;5067465;28;20049;-70
2023/12/20 10:54:23;;;;;;;18.23;3.55;;;;;;;;;;5069662;28;20611;-70
2023/12/20 10:56:51;;;;;;;18.75;4.35;;;;;;;;;;5064589;28;20418;-70
2023/12/20 10:59:22;;;;;;;17.20;4.00;;;;;;;;;;5064116;28;20084;-75
2023/12/20 11:01:48;;;;;;;19.27;4.20;;;;;;;;;;5055754;28;20060;-71
2023/12/20 11:04:18;;;;;;;11.90;3.65;;;;;;;;;;5062408;28;20048;-71
2023/12/20 11:06:54;;;;;;;13.93;3.35;;;;;;;;;;5061308;28;20127;-71
2023/12/20 11:09:20;;;;;;;19.90;5.32;;;;;;;;;;5054277;28;21940;-70
2023/12/20 11:12:04;;;;;;;14.02;3.65;;;;;;;;;;5061428;28;20481;-71
2023/12/20 11:14:46;;;;;;;13.50;3.80;;;;;;;;;;5054434;28;20047;-71
2023/12/20 11:17:14;;;;;;;24.38;4.80;;;;;;;;;;5053706;28;20488;-71
2023/12/20 11:20:06;;;;;;;20.77;3.90;;;;;;;;;;5059915;28;20064;-71
2023/12/20 11:22:33;;;;;;;15.48;3.47;;;;;;;;;;5065226;28;20056;-72
2023/12/20 11:25:09;;;;;;;20.38;4.55;;;;;;;;;;5060801;28;20101;-71
2023/12/20 11:27:43;;;;;;;22.35;5.15;;;;;;;;;;5067254;28;20051;-71
2023/12/20 11:30:09;;;;;;;16.75;4.70;;;;;;;;;;5066335;28;20036;-71
2023/12/20 11:32:36;;;;;;;19.58;4.38;;;;;;;;;;5064710;28;20045;-71
2023/12/20 11:35:24;;;;;;;20.90;3.83;;;;;;;;;;5058594;28;20036;-71
2023/12/20 11:37:51;;;;;;;14.02;3.28;;;;;;;;;;5059153;28;20052;-71
2023/12/20 11:40:21;;;;;;;15.85;3.65;;;;;;;;;;5061269;28;20087;-71
2023/12/20 11:42:51;;;;;;;11.20;3.13;;;;;;;;;;5060098;28;20099;-71
2023/12/20 11:45:21;;;;;;;14.60;3.28;;;;;;;;;;5060998;28;20048;-71
2023/12/20 11:47:49;;;;;;;15.27;2.95;;;;;;;;;;5061283;28;20060;-71
2023/12/20 11:50:16;;;;;;;13.18;3.53;;;;;;;;;;5066801;28;20399;-71
2023/12/20 11:52:42;;;;;;;6.25;2.33;;;;;;;;;;5060480;28;20136;-71
2023/12/20 11:55:08;;;;;;;9.60;2.75;;;;;;;;;;5056255;28;20041;-71
2023/12/20 11:57:34;;;;;;;16.67;3.88;;;;;;;;;;5065670;28;20083;-71
2023/12/20 12:00:03;;;;;;;14.70;3.33;;;;;;;;;;5067885;28;21551;-71
2023/12/20 12:02:30;;;;;;;10.05;3.53;;;;;;;;;;5061535;28;21682;-71
2023/12/20 12:04:58;;;;;;;10.00;3.05;;;;;;;;;;5063373;28;20060;-71
2023/12/20 12:07:24;;;;;;;10.75;2.85;;;;;;;;;;5063993;28;20178;-71
2023/12/20 12:09:50;;;;;;;7.82;2.92;;;;;;;;;;5062225;28;20060;-71
2023/12/20 12:12:17;;;;;;;8.70;3.25;;;;;;;;;;5068271;28;20063;-71
2023/12/20 12:14:44;;;;;;;9.40;2.72;;;;;;;;;;5068117;28;20060;-71
2023/12/20 12:17:11;;;;;;;11.90;3.15;;;;;;;;;;5062562;28;20041;-72
2023/12/20 12:19:37;;;;;;;13.85;3.35;;;;;;;;;;5056401;28;20657;-72
2023/12/20 12:22:09;;;;;;;16.42;3.72;;;;;;;;;;5053983;28;20094;-72
2023/12/20 12:24:35;;;;;;;11.60;3.10;;;;;;;;;;5064298;28;20051;-71
2023/12/20 12:27:01;;;;;;;11.65;3.13;;;;;;;;;;5073493;28;20447;-71
2023/12/20 12:29:27;;;;;;;12.70;3.08;;;;;;;;;;5067185;28;20546;-71
2023/12/20 12:31:53;;;;;;;10.82;3.63;;;;;;;;;;5062107;28;20068;-72
2023/12/20 12:34:20;;;;;;;14.32;3.47;;;;;;;;;;5060801;28;20079;-72
2023/12/20 12:36:46;;;;;;;12.07;3.10;;;;;;;;;;5065876;28;20357;-73
2023/12/20 12:39:15;;;;;;;8.02;2.35;;;;;;;;;;5059018;28;20375;-73
2023/12/20 12:41:41;;;;;;;10.98;3.00;;;;;;;;;;5062084;28;20079;-71
2023/12/20 12:44:08;;;;;;;14.10;3.03;;;;;;;;;;5066845;28;20099;-71
2023/12/20 12:46:34;;;;;;;10.82;3.10;;;;;;;;;;5066713;28;20049;-71
2023/12/20 12:49:00;;;;;;;13.38;3.35;;;;;;;;;;5064462;28;20067;-71
2023/12/20 12:51:26;;;;;;;14.60;3.15;;;;;;;;;;5069676;28;20036;-71
2023/12/20 12:53:52;;;;;;;12.82;3.78;;;;;;;;;;5065984;28;20121;-71
2023/12/20 12:56:18;;;;;;;9.43;3.30;;;;;;;;;;5061377;28;20068;-70
2023/12/20 12:58:44;;;;;;;10.82;3.47;;;;;;;;;;5059328;28;20044;-70
2023/12/20 13:01:10;;;;;;;14.27;4.63;;;;;;;;;;5063336;28;20082;-69
2023/12/20 13:03:36;;;;;;;11.23;3.33;;;;;;;;;;5056668;28;20040;-71
2023/12/20 13:06:02;;;;;;;14.52;3.50;;;;;;;;;;5058939;28;20068;-71
2023/12/20 13:08:34;;;;;;;11.00;3.47;;;;;;;;;;5062978;28;20342;-71
2023/12/20 13:11:00;;;;;;;11.07;2.83;;;;;;;;;;5065195;28;20051;-70
2023/12/20 13:13:29;;;;;;;4.82;2.55;;;;;;;;;;5054803;28;20037;-71
2023/12/20 13:15:55;;;;;;;7.63;2.70;;;;;;;;;;5061246;28;20109;-71
2023/12/20 13:18:22;;;;;;;8.57;2.92;;;;;;;;;;5063017;28;20472;-71
2023/12/20 13:20:48;;;;;;;10.32;2.75;;;;;;;;;;5065034;28;20090;-70
2023/12/20 13:23:15;;;;;;;9.70;3.20;;;;;;;;;;5066046;28;20476;-71
2023/12/20 13:25:41;;;;;;;6.60;2.78;;;;;;;;;;5061037;28;20041;-71
2023/12/20 13:28:08;;;;;;;9.70;3.30;;;;;;;;;;5062995;28;20127;-71
2023/12/20 13:30:34;;;;;;;8.52;3.13;;;;;;;;;;5061082;28;20104;-71
2023/12/20 13:33:00;;;;;;;17.45;3.70;;;;;;;;;;5068312;28;20389;-71
2023/12/20 13:35:26;;;;;;;12.48;4.32;;;;;;;;;;5066285;28;20467;-71
2023/12/20 13:37:52;;;;;;;16.42;3.22;;;;;;;;;;5068118;28;20080;-71
2023/12/20 13:40:19;;;;;;;13.95;3.40;;;;;;;;;;5063526;28;20071;-71
2023/12/20 13:42:45;;;;;;;13.23;3.63;;;;;;;;;;5064478;28;20048;-70
2023/12/20 13:45:11;;;;;;;17.98;4.65;;;;;;;;;;5065528;28;20060;-71
2023/12/20 13:47:37;;;;;;;17.35;4.10;;;;;;;;;;5063857;28;20079;-70
2023/12/20 13:50:04;;;;;;;21.73;4.82;;;;;;;;;;5065869;28;20060;-71
2023/12/20 13:52:30;;;;;;;20.35;4.30;;;;;;;;;;5063819;28;20067;-70
2023/12/20 13:54:56;;;;;;;24.25;4.80;;;;;;;;;;5066682;28;20408;-70
2023/12/20 13:57:22;;;;;;;17.35;4.15;;;;;;;;;;5062846;28;20052;-71
2023/12/20 13:59:50;;;;;;;10.00;3.65;;;;;;;;;;5066262;28;20045;-70
2023/12/20 14:02:16;;;;;;;18.08;4.85;;;;;;;;;;5064473;28;20052;-71
2023/12/20 14:04:43;;;;;;;18.42;5.15;;;;;;;;;;5065585;28;20045;-71
2023/12/20 14:07:10;;;;;;;21.33;4.30;;;;;;;;;;5062050;28;20495;-71
2023/12/20 14:09:36;;;;;;;20.15;5.57;;;;;;;;;;5065558;28;20098;-71
2023/12/20 14:12:02;;;;;;;17.60;5.28;;;;;;;;;;5065884;28;20161;-71
2023/12/20 14:14:28;;;;;;;21.88;4.35;;;;;;;;;;5059243;28;20531;-71
2023/12/20 14:16:54;;;;;;;18.27;4.43;;;;;;;;;;5057399;28;20052;-71
2023/12/20 14:19:20;;;;;;;15.20;4.57;;;;;;;;;;5062932;28;20052;-71
2023/12/20 14:21:46;;;;;;;21.73;4.38;;;;;;;;;;5052611;28;20044;-70
2023/12/20 14:24:14;;;;;;;15.23;3.90;;;;;;;;;;5058658;28;20051;-70
2023/12/20 14:26:41;;;;;;;20.73;4.90;;;;;;;;;;5059423;28;20086;-70
2023/12/20 14:29:07;;;;;;;22.67;5.05;;;;;;;;;;5056009;28;20044;-71